Time;durP1;ratioP1;P1;durP2;ratioP2;P2;SDS_P1;SDS_P2;PMS_P1;PMS_P2;Temp;Humidity;BMP_temperature;BMP_pressure;BME280_temperature;BME280_humidity;BME280_pressure;Samples;Min_cycle;Max_cycle;Signal;HPM_P1;HPM_P2
2022/04/16 00:02:00;;;;;;;17.98;13.25;;;;;;;-146.64;100.00;61359.25;5009898;28;20093;-77
2022/04/16 00:04:26;;;;;;;18.55;13.35;;;;;;;-146.64;100.00;61359.25;5015355;28;20477;-77
2022/04/16 00:06:52;;;;;;;17.90;12.93;;;;;;;-146.64;100.00;63203.69;5002284;28;20026;-77
2022/04/16 00:09:17;;;;;;;15.60;13.17;;;;;;;-146.64;100.00;58989.09;5003302;28;20067;-78
2022/04/16 00:11:43;;;;;;;19.55;12.90;;;;;;;-146.64;100.00;58989.09;5005511;28;20043;-77
2022/04/16 00:14:08;;;;;;;19.08;13.25;;;;;;;-146.64;100.00;60305.66;5027951;28;20091;-77
2022/04/16 00:16:33;;;;;;;21.03;12.77;;;;;;;-146.64;100.00;61359.25;5022343;28;20033;-76
2022/04/16 00:18:59;;;;;;;15.13;12.73;;;;;;;-146.64;100.00;62940.13;5018463;28;20064;-77
2022/04/16 00:21:25;;;;;;;18.98;12.95;;;;;;;-146.64;100.00;61359.25;4990452;28;20022;-77
2022/04/16 00:23:51;;;;;;;21.30;13.90;;;;;;;-146.64;100.00;62149.59;4999328;28;20025;-77
2022/04/16 00:26:18;;;;;;;18.05;14.88;;;;;;;-146.64;100.00;63467.22;5019059;28;20445;-77
2022/04/16 00:28:44;;;;;;;19.00;13.93;;;;;;;-146.64;100.00;62676.59;5016179;28;20472;-78
2022/04/16 00:31:12;;;;;;;19.10;14.02;;;;;;;-146.64;100.00;62676.59;4998557;28;20181;-77
2022/04/16 00:33:38;;;;;;;16.75;13.38;;;;;;;-146.64;100.00;63203.69;5022990;28;20128;-77
2022/04/16 00:36:04;;;;;;;19.90;14.63;;;;;;;-146.64;100.00;64258.03;5000251;28;20029;-77
2022/04/16 00:38:29;;;;;;;20.88;14.63;;;;;;;-146.64;100.00;62676.59;5023999;28;20528;-78
2022/04/16 00:40:57;;;;;;;19.13;15.20;;;;;;;-146.64;100.00;61359.25;5008513;28;20571;-78
2022/04/16 00:43:27;;;;;;;23.80;16.05;;;;;;;-146.64;100.00;63203.69;5010271;28;20042;-76
2022/04/16 00:45:53;;;;;;;18.23;14.93;;;;;;;-146.64;100.00;60569.03;5015005;28;20112;-78
2022/04/16 00:48:19;;;;;;;22.35;15.23;;;;;;;-146.64;100.00;61359.25;4995262;28;20037;-77
2022/04/16 00:50:46;;;;;;;19.70;16.07;;;;;;;-146.64;100.00;64521.66;5002173;28;20026;-77
2022/04/16 00:53:12;;;;;;;18.80;15.00;;;;;;;-146.64;100.00;65840.06;5017433;28;20453;-77
2022/04/16 00:55:38;;;;;;;20.03;14.80;;;;;;;-146.64;100.00;68742.09;5017674;28;20040;-77
2022/04/16 00:58:03;;;;;;;24.90;15.80;;;;;;;-146.64;100.00;70854.00;4989504;28;20493;-78
2022/04/16 01:00:29;;;;;;;18.88;15.35;;;;;;;-146.64;100.00;72438.66;5019940;28;20040;-77
2022/04/16 01:02:56;;;;;;;22.00;14.90;;;;;;;-146.64;100.00;75345.50;5001437;28;20034;-77
2022/04/16 01:05:23;;;;;;;18.90;16.00;;;;;;;-146.64;100.00;77725.41;5009772;28;20034;-75
2022/04/16 01:07:53;;;;;;;22.23;15.80;;;;;;;-146.64;100.00;79048.19;5016744;28;20034;-77
2022/04/16 01:10:28;;;;;;;24.05;15.77;;;;;;;-146.64;100.00;78783.59;5006134;28;20041;-77
2022/04/16 01:12:57;;;;;;;26.92;16.33;;;;;;;-146.64;100.00;81165.53;5001733;28;20041;-77
2022/04/16 01:15:24;;;;;;;24.85;16.30;;;;;;;-146.64;100.00;83548.88;5002602;28;20041;-78
2022/04/16 01:17:50;;;;;;;19.03;14.63;;;;;;;-146.64;100.00;85668.59;4982806;28;20037;-78
2022/04/16 01:20:16;;;;;;;18.95;14.98;;;;;;;-146.64;100.00;87789.44;4985244;28;20283;-78
2022/04/16 01:22:42;;;;;;;18.75;15.73;;;;;;;-146.64;100.00;88054.63;5003180;28;20497;-77
2022/04/16 01:25:08;;;;;;;20.27;15.37;;;;;;;-146.64;100.00;86728.88;4985622;28;20216;-78
2022/04/16 01:27:35;;;;;;;20.45;14.93;;;;;;;-146.64;100.00;86728.88;5014382;28;20478;-78
2022/04/16 01:30:03;;;;;;;22.15;15.18;;;;;;;-146.64;100.00;86994.00;5002370;28;20038;-78
2022/04/16 01:32:29;;;;;;;23.38;14.75;;;;;;;-146.64;100.00;88054.63;4999643;28;20026;-78
2022/04/16 01:34:54;;;;;;;18.35;15.73;;;;;;;-146.64;100.00;89646.09;4981752;28;20038;-78
2022/04/16 01:37:22;;;;;;;27.13;15.07;;;;;;;-146.64;100.00;89911.41;4984110;28;20026;-78
2022/04/16 01:39:47;;;;;;;23.83;15.60;;;;;;;-146.64;100.00;90972.78;5014094;28;20033;-78
2022/04/16 01:42:13;;;;;;;19.80;14.35;;;;;;;-146.64;100.00;91238.19;5006117;28;20552;-77
2022/04/16 01:44:38;;;;;;;21.40;15.00;;;;;;;-146.64;100.00;91503.59;4998315;28;20061;-78
2022/04/16 01:47:04;;;;;;;20.58;16.27;;;;;;;-146.64;100.00;92299.94;5015604;28;20057;-78
2022/04/16 01:49:29;;;;;;;20.15;15.30;;;;;;;-146.64;100.00;93627.50;5015659;28;20476;-77
2022/04/16 01:51:57;;;;;;;19.08;15.00;;;;;;;-146.64;100.00;93627.50;5000154;28;20053;-78
2022/04/16 01:54:22;;;;;;;23.38;14.77;;;;;;;-146.64;100.00;95486.84;5018137;28;20052;-77
2022/04/16 01:56:47;;;;;;;24.25;15.32;;;;;;;-146.64;100.00;96549.72;4999160;28;20056;-78
2022/04/16 01:59:13;;;;;;;28.83;15.03;;;;;;;-146.64;100.00;96815.47;4990117;28;20080;-78
2022/04/16 02:01:38;;;;;;;23.67;15.25;;;;;;;-146.64;100.00;96549.72;5003641;28;20484;-77
2022/04/16 02:04:04;;;;;;;18.77;14.50;;;;;;;-146.64;100.00;96815.47;5009863;28;20027;-78
2022/04/16 02:06:29;;;;;;;31.53;15.23;;;;;;;-146.64;100.00;97612.84;4990513;28;20034;-78
2022/04/16 02:08:55;;;;;;;20.58;15.05;;;;;;;-146.64;100.00;97878.69;5001574;28;20046;-77
2022/04/16 02:11:20;;;;;;;19.30;14.75;;;;;;;-146.64;100.00;97347.03;5016937;28;20030;-78
2022/04/16 02:13:45;;;;;;;17.85;14.48;;;;;;;-146.64;100.00;96549.72;5000255;28;20040;-77
2022/04/16 02:16:11;;;;;;;19.40;13.95;;;;;;;-146.64;100.00;96815.47;5017625;28;20093;-77
2022/04/16 02:18:36;;;;;;;22.35;15.52;;;;;;;-146.64;100.00;96549.72;4995220;28;20060;-78
2022/04/16 02:21:02;;;;;;;20.20;14.82;;;;;;;-146.64;100.00;97081.25;5011959;28;20022;-78
2022/04/16 02:23:28;;;;;;;30.00;14.27;;;;;;;-146.64;100.00;96549.72;5009904;28;20038;-77
2022/04/16 02:25:54;;;;;;;23.05;14.85;;;;;;;-146.64;100.00;96815.47;5015085;28;20113;-78
2022/04/16 02:28:22;;;;;;;23.05;15.18;;;;;;;-146.64;100.00;97347.03;5000699;28;20038;-77
2022/04/16 02:30:49;;;;;;;20.33;14.93;;;;;;;-146.64;100.00;97612.84;5000080;28;20040;-77
2022/04/16 02:33:15;;;;;;;20.25;15.07;;;;;;;-146.64;100.00;98410.41;5007014;28;20101;-79
2022/04/16 02:35:40;;;;;;;24.80;14.67;;;;;;;-146.64;100.00;98410.41;5019666;28;20076;-77
2022/04/16 02:38:05;;;;;;;22.92;14.60;;;;;;;-146.64;100.00;98676.28;5005055;28;20101;-78
2022/04/16 02:40:31;;;;;;;20.48;14.45;;;;;;;-146.64;100.00;98410.41;5019691;28;20029;-77
2022/04/16 02:42:56;;;;;;;22.45;14.57;;;;;;;-146.64;100.00;98942.19;5003270;28;20113;-78
2022/04/16 02:48:07;;;;;;;23.92;14.63;;;;;;;-146.64;100.00;99208.09;5001525;28;20468;-78
2022/04/16 02:50:33;;;;;;;23.20;16.75;;;;;;;-146.64;100.00;99739.97;5027455;28;20143;-77
2022/04/16 02:52:59;;;;;;;24.30;15.75;;;;;;;-146.64;100.00;99208.09;4987843;28;20072;-79
2022/04/16 02:55:25;;;;;;;22.35;15.15;;;;;;;-146.64;100.00;98676.28;5027295;28;20021;-78
2022/04/16 02:57:51;;;;;;;20.93;15.40;;;;;;;-146.64;100.00;98144.53;4987576;28;20069;-78
2022/04/16 03:00:19;;;;;;;26.27;16.85;;;;;;;-146.64;100.00;97612.84;5013711;28;20287;-76
2022/04/16 03:02:46;;;;;;;22.58;15.65;;;;;;;-146.64;100.00;97878.69;5009726;28;20104;-76
2022/04/16 03:05:11;;;;;;;24.27;15.95;;;;;;;-146.64;100.00;97081.25;5006183;28;20104;-77
2022/04/16 03:07:37;;;;;;;20.63;16.27;;;;;;;-146.64;100.00;97878.69;5016593;28;20431;-78
2022/04/16 03:10:03;;;;;;;25.85;16.08;;;;;;;-146.64;100.00;97878.69;5016689;28;20037;-77
2022/04/16 03:12:40;;;;;;;25.58;16.58;;;;;;;-146.64;100.00;98144.53;4998503;28;20436;-78
2022/04/16 03:17:52;;;;;;;21.35;15.30;;;;;;;-146.64;100.00;98676.28;5008719;28;20036;-78
2022/04/16 03:20:20;;;;;;;23.10;16.05;;;;;;;-146.64;100.00;99208.09;5019334;28;20025;-78
2022/04/16 03:22:45;;;;;;;22.20;16.55;;;;;;;-146.64;100.00;98942.19;5006156;28;20088;-78
2022/04/16 03:25:11;;;;;;;22.33;16.35;;;;;;;-146.64;100.00;100005.94;5003680;28;20045;-77
2022/04/16 03:27:37;;;;;;;25.13;16.38;;;;;;;-146.64;100.00;100005.94;5014861;28;20409;-77
2022/04/16 03:30:06;;;;;;;22.40;16.58;;;;;;;-146.64;100.00;100803.97;5009798;28;20033;-79
2022/04/16 03:32:32;;;;;;;27.00;16.92;;;;;;;-146.64;100.00;101070.00;5010353;28;20609;-77
2022/04/16 03:34:57;;;;;;;24.00;17.45;;;;;;;-146.64;100.00;101336.06;4996299;28;20034;-78
2022/04/16 03:37:24;;;;;;;24.85;16.40;;;;;;;-146.64;100.00;101336.06;4996285;28;20034;-77
2022/04/16 03:39:52;;;;;;;24.58;16.63;;;;;;;-146.64;100.00;101868.22;5004407;28;20041;-78
2022/04/16 03:42:19;;;;;;;26.75;17.25;;;;;;;-146.64;100.00;102400.44;5026196;28;20041;-78
2022/04/16 03:44:44;;;;;;;24.17;16.43;;;;;;;-146.64;100.00;102134.31;5029128;28;20026;-77
2022/04/16 03:47:11;;;;;;;24.58;16.38;;;;;;;-146.64;100.00;102932.75;4989508;28;20064;-78
2022/04/16 03:49:38;;;;;;;22.90;17.10;;;;;;;-146.64;100.00;103465.13;4993067;28;20057;-78
2022/04/16 03:52:04;;;;;;;26.80;16.90;;;;;;;-146.64;100.00;103731.34;5014828;28;20065;-78
2022/04/16 04:00:00;;;;;;;24.75;17.85;;;;;;;-146.64;100.00;104796.38;5021183;28;20053;-79
2022/04/16 04:02:33;;;;;;;23.30;16.65;;;;;;;-146.64;100.00;105329.00;5029927;28;20025;-78
2022/04/16 04:04:59;;;;;;;25.67;16.67;;;;;;;-146.64;100.00;105595.31;5012799;28;20528;-77
2022/04/16 04:07:25;;;;;;;29.08;17.63;;;;;;;-146.64;100.00;106394.44;5004029;28;20044;-78
2022/04/16 04:09:51;;;;;;;22.77;17.58;;;;;;;-146.64;100.00;106128.03;5009577;28;20033;-78
2022/04/16 04:12:17;;;;;;;25.23;18.27;;;;;;;-146.64;100.00;107193.69;5013731;28;20085;-78
2022/04/16 04:14:44;;;;;;;31.15;17.88;;;;;;;-146.64;100.00;107460.16;4998955;28;20041;-78
2022/04/16 04:17:10;;;;;;;25.83;17.85;;;;;;;-146.64;100.00;107993.13;5008844;28;20037;-78
2022/04/16 04:19:37;;;;;;;27.57;18.20;;;;;;;-146.64;100.00;108259.63;5008472;28;20041;-79
2022/04/16 04:22:08;;;;;;;25.08;18.65;;;;;;;-146.64;100.00;108259.63;4999974;28;20017;-78
2022/04/16 04:24:34;;;;;;;25.20;18.75;;;;;;;-146.64;100.00;108526.16;4967184;28;20038;-79
2022/04/16 04:27:00;;;;;;;24.77;17.90;;;;;;;-146.64;100.00;108792.72;5015891;28;20044;-78
2022/04/16 04:29:29;;;;;;;32.95;20.02;;;;;;;-146.64;100.00;108792.72;4999857;28;20034;-79
2022/04/16 04:31:55;;;;;;;25.55;18.35;;;;;;;-146.64;100.00;109059.28;5016563;28;20034;-78
2022/04/16 04:34:21;;;;;;;27.00;19.75;;;;;;;-146.64;100.00;109592.44;5014959;28;20026;-78
2022/04/16 04:36:46;;;;;;;25.02;18.20;;;;;;;-146.64;100.00;109325.84;5022110;28;20071;-78
2022/04/16 04:39:15;;;;;;;27.67;19.17;;;;;;;-146.64;100.00;110125.69;4998222;28;20037;-79
2022/04/16 04:41:43;;;;;;;27.80;19.17;;;;;;;-146.64;100.00;110125.69;5012953;28;20486;-79
2022/04/16 04:44:10;;;;;;;27.90;19.92;;;;;;;-146.64;100.00;109859.06;5014772;28;20037;-78
2022/04/16 04:46:35;;;;;;;28.45;19.70;;;;;;;-146.64;100.00;110392.34;5001574;28;20038;-79
2022/04/16 04:49:01;;;;;;;27.98;18.98;;;;;;;-146.64;100.00;110659.00;4994267;28;20026;-78
2022/04/16 04:51:26;;;;;;;27.58;19.55;;;;;;;-146.64;100.00;110659.00;5023415;28;20392;-78
2022/04/16 04:53:52;;;;;;;30.85;21.27;;;;;;;-146.64;100.00;110925.69;5010040;28;20121;-78
2022/04/16 04:56:17;;;;;;;29.60;20.63;;;;;;;-146.64;100.00;111192.41;5008728;28;20165;-78
2022/04/16 04:58:42;;;;;;;31.45;20.65;;;;;;;-146.64;100.00;111192.41;5003458;28;20040;-78
2022/04/16 05:01:07;;;;;;;33.08;21.08;;;;;;;-146.64;100.00;111192.41;5003054;28;20042;-77
2022/04/16 05:03:33;;;;;;;31.85;20.08;;;;;;;-146.64;100.00;111192.41;5014129;28;20503;-78
2022/04/16 05:05:58;;;;;;;28.02;19.30;;;;;;;-146.64;100.00;111459.13;5013122;28;20030;-78
2022/04/16 05:08:23;;;;;;;30.70;20.30;;;;;;;-146.64;100.00;111459.13;5020548;28;20040;-78
2022/04/16 05:10:49;;;;;;;33.83;20.48;;;;;;;-146.64;100.00;111459.13;5003300;28;20037;-78
2022/04/16 05:13:14;;;;;;;29.88;19.13;;;;;;;-146.64;100.00;111459.13;5028604;28;20025;-79
2022/04/16 05:15:39;;;;;;;30.27;20.42;;;;;;;-146.64;100.00;111459.13;4999535;28;20026;-79
2022/04/16 05:18:05;;;;;;;34.45;21.15;;;;;;;-146.64;100.00;111459.13;5011444;28;20113;-78
2022/04/16 05:20:33;;;;;;;30.75;20.52;;;;;;;-146.64;100.00;111192.41;5015729;28;20025;-78
2022/04/16 05:22:59;;;;;;;31.05;21.05;;;;;;;-146.64;100.00;110925.69;5015212;28;20029;-78
2022/04/16 05:25:24;;;;;;;28.95;20.17;;;;;;;-146.64;100.00;110925.69;5026809;28;20120;-79
2022/04/16 05:27:50;;;;;;;32.50;20.67;;;;;;;-146.64;100.00;110659.00;5018670;28;20053;-79
2022/04/16 05:30:30;;;;;;;32.08;21.35;;;;;;;-146.64;100.00;110925.69;4983024;28;20037;-78
2022/04/16 05:33:02;;;;;;;29.70;20.15;;;;;;;-146.64;100.00;110392.34;5005854;28;20025;-79
2022/04/16 05:35:27;;;;;;;30.73;21.20;;;;;;;-146.64;100.00;110392.34;5013815;28;20437;-78
2022/04/16 05:37:53;;;;;;;31.73;22.00;;;;;;;-146.64;100.00;110392.34;5016538;28;20034;-80
2022/04/16 05:40:19;;;;;;;35.80;21.63;;;;;;;-146.64;100.00;110125.69;4995886;28;20041;-78
2022/04/16 05:42:44;;;;;;;32.43;21.73;;;;;;;-146.64;100.00;109859.06;4991097;28;20125;-80
2022/04/16 05:45:14;;;;;;;31.52;21.52;;;;;;;-146.64;100.00;109592.44;5010556;28;20037;-79
2022/04/16 05:47:43;;;;;;;30.30;22.23;;;;;;;-146.64;100.00;109325.84;4998217;28;20064;-78
2022/04/16 05:50:09;;;;;;;31.60;21.92;;;;;;;-146.64;100.00;108526.16;4983091;28;20036;-82
2022/04/16 05:52:35;;;;;;;34.47;21.75;;;;;;;-146.64;100.00;107993.13;5011465;28;20470;-79
2022/04/16 05:55:01;;;;;;;37.90;23.15;;;;;;;-146.64;100.00;107193.69;5005834;28;20030;-81
2022/04/16 05:57:27;;;;;;;32.42;22.95;;;;;;;-146.64;100.00;106660.84;4987109;28;20595;-81
2022/04/16 05:59:55;;;;;;;30.25;21.77;;;;;;;-146.64;100.00;105861.69;4995392;28;20275;-80
2022/04/16 06:02:20;;;;;;;30.08;22.08;;;;;;;-146.64;100.00;104530.09;4997819;28;20030;-80
2022/04/16 06:04:46;;;;;;;30.80;21.63;;;;;;;-146.64;100.00;103731.34;4979224;28;20357;-79
2022/04/16 06:07:11;;;;;;;30.75;21.70;;;;;;;-146.64;100.00;102932.75;5011172;28;20025;-79
2022/04/16 06:09:37;;;;;;;32.80;22.38;;;;;;;-146.64;100.00;102400.44;4994857;28;20061;-80
2022/04/16 06:12:03;;;;;;;35.70;24.08;;;;;;;-146.64;100.00;101070.00;5015182;28;20022;-79
2022/04/16 06:14:29;;;;;;;30.63;21.40;;;;;;;-146.64;100.00;100005.94;4999053;28;20033;-79
2022/04/16 06:16:54;;;;;;;29.98;22.20;;;;;;;-146.64;100.00;99208.09;5021867;28;20361;-79
2022/04/16 06:19:20;;;;;;;38.22;22.88;;;;;;;-146.64;100.00;97878.69;5021614;28;20034;-80
2022/04/16 06:21:45;;;;;;;32.75;21.52;;;;;;;-146.64;100.00;96283.97;5009979;28;20129;-79
2022/04/16 06:24:10;;;;;;;34.33;22.80;;;;;;;-146.64;100.00;94955.53;5007105;28;20105;-80
2022/04/16 06:26:36;;;;;;;38.30;22.05;;;;;;;-146.64;100.00;94424.25;5008753;28;20025;-79
2022/04/16 06:29:01;;;;;;;31.58;21.95;;;;;;;-146.64;100.00;93361.97;4980705;28;20396;-79
2022/04/16 06:31:26;;;;;;;34.65;22.95;;;;;;;-146.64;100.00;92034.47;5009412;28;20046;-79
2022/04/16 06:33:52;;;;;;;33.45;24.20;;;;;;;-146.64;100.00;91238.19;5011947;28;20103;-79
2022/04/16 06:36:17;;;;;;;31.88;23.10;;;;;;;-146.64;100.00;89911.41;5017371;28;20080;-79
2022/04/16 06:38:42;;;;;;;32.17;22.75;;;;;;;-146.64;100.00;89115.53;5017517;28;20668;-80
2022/04/16 06:41:08;;;;;;;32.75;23.15;;;;;;;-146.64;100.00;87524.28;4990546;28;20121;-80
2022/04/16 06:43:33;;;;;;;33.90;22.33;;;;;;;-146.64;100.00;85933.66;5008262;28;20044;-81
2022/04/16 06:45:58;;;;;;;36.40;22.95;;;;;;;-146.64;100.00;83548.88;4998929;28;20469;-81
2022/04/16 06:48:24;;;;;;;35.72;25.20;;;;;;;-146.64;100.00;82224.63;5000181;28;20121;-80
2022/04/16 06:50:49;;;;;;;37.72;24.48;;;;;;;-146.64;100.00;83019.13;5009549;28;20477;-80
2022/04/16 06:53:15;;;;;;;34.20;23.42;;;;;;;-146.64;100.00;81959.81;4992028;28;20036;-80
2022/04/16 06:55:41;;;;;;;30.80;23.40;;;;;;;-146.64;100.00;79842.06;5026276;28;20542;-80
2022/04/16 06:58:06;;;;;;;35.50;23.60;;;;;;;-146.64;100.00;77460.91;4999176;28;20042;-80
2022/04/16 07:00:31;;;;;;;32.90;23.52;;;;;;;-146.64;100.00;78254.47;5003455;28;20054;-81
2022/04/16 07:02:57;;;;;;;35.03;24.50;;;;;;;-146.64;100.00;75345.50;4991727;28;20034;-80
2022/04/16 07:05:22;;;;;;;37.38;24.88;;;;;;;-146.64;100.00;73495.47;4993512;28;20044;-79
2022/04/16 07:07:47;;;;;;;33.67;24.17;;;;;;;-146.64;100.00;72702.84;5006482;28;20025;-80
2022/04/16 07:10:13;;;;;;;31.77;23.60;;;;;;;-146.64;100.00;46542.31;5008487;28;20037;-78
2022/04/16 07:12:38;;;;;;;31.93;23.37;;;;;;;-146.64;100.00;39149.50;5001544;28;20034;-79
2022/04/16 07:15:05;;;;;;;33.47;23.17;;;;;;;-146.64;100.00;38883.47;5007390;28;20026;-79
2022/04/16 07:17:30;;;;;;;32.78;23.15;;;;;;;-146.64;100.00;38850.72;4999644;28;20017;-79
2022/04/16 07:19:56;;;;;;;30.47;21.30;;;;;;;-146.64;100.00;38924.41;5015409;28;20131;-79
2022/04/16 07:22:21;;;;;;;31.93;23.80;;;;;;;-146.64;100.00;39010.34;4993251;28;20030;-79
2022/04/16 07:24:48;;;;;;;34.72;23.85;;;;;;;-146.64;100.00;38908.03;5012792;28;20385;-79
2022/04/16 07:27:14;;;;;;;31.33;22.98;;;;;;;-146.64;100.00;38836.41;4993372;28;20575;-79
2022/04/16 07:29:39;;;;;;;33.70;24.00;;;;;;;-146.64;100.00;38901.88;5002716;28;20257;-79
2022/04/16 07:32:05;;;;;;;29.63;22.53;;;;;;;-146.64;100.00;38867.09;4998595;28;20028;-79
2022/04/16 07:34:30;;;;;;;34.53;23.27;;;;;;;-146.64;100.00;38766.81;5010335;28;20123;-79
2022/04/16 07:36:55;;;;;;;35.97;22.73;;;;;;;-146.64;100.00;38863.00;5013912;28;20452;-80
2022/04/16 07:39:21;;;;;;;31.40;22.63;;;;;;;-146.64;100.00;38858.91;4991999;28;20021;-78
2022/04/16 07:41:47;;;;;;;28.88;22.77;;;;;;;-146.64;100.00;38993.97;5013718;28;20167;-79
2022/04/16 07:44:12;;;;;;;32.30;23.13;;;;;;;-146.64;100.00;38944.84;4992399;28;20050;-79
2022/04/16 07:46:38;;;;;;;34.17;23.40;;;;;;;-146.64;100.00;38858.91;4991928;28;20117;-79
2022/04/16 07:49:03;;;;;;;34.53;23.77;;;;;;;-146.64;100.00;38948.94;5002821;28;20025;-79
2022/04/16 07:51:29;;;;;;;35.50;25.53;;;;;;;-146.64;100.00;38901.88;5013482;28;20029;-79
2022/04/16 07:53:58;;;;;;;35.63;23.53;;;;;;;-146.64;100.00;38930.53;4995950;28;20026;-79
2022/04/16 07:56:24;;;;;;;29.88;22.90;;;;;;;-146.64;100.00;39039.00;4996061;28;20070;-79
2022/04/16 07:58:50;;;;;;;31.03;22.40;;;;;;;-146.64;100.00;39067.66;4998576;28;20095;-79
2022/04/16 08:01:15;;;;;;;33.83;24.03;;;;;;;-146.64;100.00;39067.66;4994463;28;20166;-79
2022/04/16 08:03:43;;;;;;;29.80;22.67;;;;;;;-146.64;100.00;39006.25;4976344;28;20041;-79
2022/04/16 08:06:08;;;;;;;30.25;22.48;;;;;;;-146.64;100.00;38930.53;4986787;28;20051;-81
2022/04/16 08:08:34;;;;;;;29.33;21.77;;;;;;;-146.64;100.00;38989.88;4989484;28;20502;-78
2022/04/16 08:10:59;;;;;;;30.33;22.47;;;;;;;-146.64;100.00;38932.56;5011966;28;20037;-79
2022/04/16 08:13:24;;;;;;;33.40;22.95;;;;;;;-146.64;100.00;39002.16;4994274;28;20099;-79
2022/04/16 08:15:50;;;;;;;33.50;21.67;;;;;;;-146.64;100.00;38912.13;5008288;28;20156;-78
2022/04/16 08:18:16;;;;;;;32.37;22.20;;;;;;;-146.64;100.00;38766.81;5003844;28;20424;-80
2022/04/16 08:20:41;;;;;;;32.70;21.13;;;;;;;-146.64;100.00;38910.06;5020467;28;20030;-80
2022/04/16 08:23:07;;;;;;;31.07;21.43;;;;;;;-146.64;100.00;38858.91;5005362;28;20061;-79
2022/04/16 08:27:59;;;;;;;33.53;22.73;;;;;;;-146.64;100.00;38746.38;4999934;28;20030;-79
2022/04/16 08:30:25;;;;;;;31.08;21.75;;;;;;;-146.64;100.00;38781.16;4995709;28;20056;-80
2022/04/16 08:32:50;;;;;;;28.27;19.97;;;;;;;-146.64;100.00;38797.53;5000774;28;20026;-80
2022/04/16 08:35:16;;;;;;;30.77;21.43;;;;;;;-146.64;100.00;38744.31;4998992;28;20037;-80
2022/04/16 08:37:42;;;;;;;28.48;22.40;;;;;;;-146.64;100.00;38689.06;5007300;28;20038;-80
2022/04/16 08:40:09;;;;;;;31.60;22.53;;;;;;;-146.64;100.00;38666.56;5002587;28;20041;-76
2022/04/16 08:42:35;;;;;;;30.05;22.45;;;;;;;-146.64;100.00;38693.16;5000199;28;21579;-79
2022/04/16 08:45:03;;;;;;;35.72;21.63;;;;;;;-146.64;100.00;38687.03;4994160;28;20037;-78
2022/04/16 08:47:28;;;;;;;;;;;;;;;-146.64;100.00;38699.28;4992236;28;20048;-77
2022/04/16 08:49:53;;;;;;;32.20;21.27;;;;;;;-146.64;100.00;38715.66;4992867;28;19917;-77
2022/04/16 08:52:20;;;;;;;28.77;20.60;;;;;;;-146.64;100.00;38646.09;5008244;28;20032;-79
2022/04/16 08:54:46;;;;;;;30.98;21.88;;;;;;;-146.64;100.00;38674.75;4981559;28;20064;-79
2022/04/16 08:57:11;;;;;;;29.90;22.33;;;;;;;-146.64;100.00;38687.03;5013624;28;20033;-80
2022/04/16 08:59:36;;;;;;;31.67;23.77;;;;;;;-146.64;100.00;38637.91;4993144;28;20034;-80
2022/04/16 09:02:02;;;;;;;27.57;20.73;;;;;;;-146.64;100.00;38601.06;5014045;28;20037;-79
2022/04/16 09:04:32;;;;;;;31.23;21.70;;;;;;;-146.64;100.00;38574.47;5012385;28;20048;-79
2022/04/16 09:07:02;;;;;;;30.92;21.27;;;;;;;-146.64;100.00;38574.47;5004780;28;20239;-79
2022/04/16 09:09:28;;;;;;;31.33;21.77;;;;;;;-146.64;100.00;38596.97;4995461;28;20030;-79
2022/04/16 09:11:53;;;;;;;31.27;21.43;;;;;;;-146.64;100.00;38588.81;5013409;28;20116;-81
2022/04/16 09:14:19;;;;;;;28.60;21.13;;;;;;;-146.64;100.00;38590.84;5005189;28;20140;-80
2022/04/16 09:16:45;;;;;;;29.30;22.27;;;;;;;-146.64;100.00;38523.31;4996647;28;20499;-80
2022/04/16 09:19:17;;;;;;;27.53;19.10;;;;;;;-146.64;100.00;38605.16;4998337;28;20386;-80
2022/04/16 09:21:43;;;;;;;27.90;20.90;;;;;;;-146.64;100.00;38572.44;4995975;28;20056;-79
2022/04/16 09:24:09;;;;;;;27.38;20.77;;;;;;;-146.64;100.00;38547.88;4987908;28;20319;-80
2022/04/16 09:26:36;;;;;;;30.73;20.63;;;;;;;-146.64;100.00;38556.06;4996589;28;20104;-79
2022/04/16 09:29:10;;;;;;;26.85;19.42;;;;;;;-146.64;100.00;38480.34;5003241;28;20030;-80
2022/04/16 09:31:41;;;;;;;27.77;20.50;;;;;;;-146.64;100.00;38498.75;4997118;28;20026;-80
2022/04/16 09:34:14;;;;;;;26.65;20.27;;;;;;;-146.64;100.00;38494.69;4978599;28;20037;-78
2022/04/16 09:36:40;;;;;;;29.02;20.67;;;;;;;-146.64;100.00;38535.59;5013178;28;20077;-79
2022/04/16 09:39:06;;;;;;;26.87;20.67;;;;;;;-146.64;100.00;38468.06;4996157;28;20164;-79
2022/04/16 09:41:36;;;;;;;30.25;19.83;;;;;;;-146.64;100.00;38511.03;4998195;28;20025;-79
2022/04/16 09:44:02;;;;;;;25.10;19.42;;;;;;;-146.64;100.00;38531.50;5015655;28;20038;-79
2022/04/16 09:46:29;;;;;;;27.33;18.00;;;;;;;-146.64;100.00;38549.91;5000565;28;20128;-78
2022/04/16 09:49:02;;;;;;;25.02;18.38;;;;;;;-146.64;100.00;38502.84;5024334;28;20033;-78
2022/04/16 09:51:31;;;;;;;24.73;17.27;;;;;;;-146.64;100.00;38396.47;4978200;28;20169;-78
2022/04/16 09:53:57;;;;;;;24.00;17.50;;;;;;;-146.64;100.00;38478.31;5008258;28;20413;-79
2022/04/16 09:56:25;;;;;;;25.23;18.75;;;;;;;-146.64;100.00;38392.38;5009088;28;20024;-79
2022/04/16 09:58:54;;;;;;;25.65;18.13;;;;;;;-146.64;100.00;38408.75;4988967;28;20377;-79
2022/04/16 10:01:22;;;;;;;22.15;16.88;;;;;;;-146.64;100.00;38429.19;5004688;28;20048;-79
2022/04/16 10:03:48;;;;;;;19.75;15.95;;;;;;;-146.64;100.00;38371.91;4995977;28;20067;-79
2022/04/16 10:06:13;;;;;;;22.80;16.17;;;;;;;-146.64;100.00;38421.00;4994039;28;20029;-78
2022/04/16 10:08:40;;;;;;;22.67;15.17;;;;;;;-146.64;100.00;38412.81;5012841;28;20033;-78
2022/04/16 10:11:06;;;;;;;22.67;17.00;;;;;;;-146.64;100.00;38378.03;4996538;28;20030;-78
2022/04/16 10:13:36;;;;;;;22.80;15.80;;;;;;;-146.64;100.00;38263.47;5017479;28;20033;-80
2022/04/16 10:16:13;;;;;;;18.65;14.80;;;;;;;-146.64;95.70;38314.63;5028896;28;20036;-80
2022/04/16 10:18:38;;;;;;;20.85;15.80;;;;;;;-146.64;95.25;38302.34;5029808;28;20405;-79
2022/04/16 10:21:03;;;;;;;21.33;15.03;;;;;;;-146.64;97.02;38353.50;4993359;28;20029;-79
2022/04/16 10:23:38;;;;;;;21.37;14.57;;;;;;;-146.64;97.07;38355.53;5005247;28;20026;-81
2022/04/16 10:26:11;;;;;;;33.58;16.65;;;;;;;-146.64;96.06;38267.56;5002647;28;20033;-80
2022/04/16 10:28:51;;;;;;;18.10;13.77;;;;;;;-146.64;93.00;38191.84;5008353;28;20076;-79
2022/04/16 10:31:21;;;;;;;25.33;13.98;;;;;;;-146.64;90.92;38198.00;5009749;28;20060;-80
2022/04/16 10:33:59;;;;;;;19.95;13.90;;;;;;;-146.64;87.68;38163.22;5017642;28;20026;-81
2022/04/16 10:36:27;;;;;;;19.05;13.57;;;;;;;-146.64;83.76;38142.75;5025066;28;20030;-81
2022/04/16 10:38:52;;;;;;;18.13;13.57;;;;;;;-146.64;82.61;38085.47;5025869;28;20044;-82
2022/04/16 10:41:19;;;;;;;13.50;10.43;;;;;;;-146.64;78.96;38087.50;5006475;28;20030;-81
2022/04/16 10:43:59;;;;;;;14.98;10.85;;;;;;;-146.64;74.17;38122.28;5012009;28;20037;-78
2022/04/16 10:46:24;;;;;;;10.73;9.05;;;;;;;-146.64;71.85;38103.88;5021989;28;20033;-81
2022/04/16 10:48:50;;;;;;;13.57;8.67;;;;;;;-146.64;72.34;38101.81;5010590;28;20034;-82
2022/04/16 10:51:24;;;;;;;12.45;8.25;;;;;;;-146.64;71.09;38128.44;5042335;28;20029;-81
2022/04/16 10:53:49;;;;;;;16.25;10.00;;;;;;;-146.64;73.04;38056.81;5021937;28;20039;-80
2022/04/16 10:56:22;;;;;;;13.17;10.80;;;;;;;-146.64;71.87;38069.09;5031770;28;20580;-80
2022/04/16 10:59:00;;;;;;;14.48;9.52;;;;;;;-146.64;72.00;38056.81;5013171;28;20053;-80
2022/04/16 11:01:27;;;;;;;14.35;9.95;;;;;;;-146.64;69.53;37956.56;5030235;28;20026;-79
2022/04/16 11:03:55;;;;;;;11.40;9.18;;;;;;;-146.64;69.89;38093.66;5049217;28;20021;-80